Home PIREPS Pireps

Flight BEL2559

  • Submitted By: Wouter Cooremans
  • Departure Airport: Bruxelles National (EBBR)
  • Arrival Airport: Warszawa-Okecie (EPWA)
  • Aircraft: BAE AVRO RJ1 (OO-DWJ)
  • Flight Time: 02.37
  • Date Submitted: 28/03/2015
  • Status: Accepted
Flight Details
Gross Revenue:
(76 load / € 0.00 per unit
€ 0.00
Fuel Cost:
(6439 fuel used @ 5.1 / unit)
€ 32,838.90

Additional Log Information:

View Log

Aircraft Used in flight is Airbus A319-100 Brussels Airlines
19:09 Brakes are On
19:11 Brakes are Released
19:12 Brakes are On
19:13 Brakes are Released
19:15 You are Airborne and your Beacons are off
19:15 You are Airborne and your Navigation Lights are off
19:18 Brakes are On
19:18 In Air Refuel Suspected
19:19 Brakes are Released
19:23 You Took off @ 164 Knots and Flaps at Position 2
Departure Weather
EBBR 281750Z 24011KT 2800 DZRA BR FEW007 BKN014 11/10 Q1011 TEMPO BKN008rn
19:23 Landing Gear Up @ 170 Knots and 230 Feet
19:59 Paused
20:00 Unpaused
20:00 Paused
20:00 Unpaused
20:02 Stalling
20:02 Recovered from Stall
21:12 Below FL100 you need to turn on the landing lights
21:43 Landing Gear Down @ 147 Knots and 940 Feet
21:44 You Landed @ 119 Knots and with -150 Vertical Speed
Arrival Weather
EPWA 282030Z 31004KT 9999 BKN028 05/04 Q1015 NOSIGrn
21:46 Brakes are On
21:47 Brussels Bel-Track1.0.0.8

Route Map

Corporate About Us Our Team Vacancies Information Fleet Route Network Rules and Regulations Operations Flight Schedules Event Center Tours Partners IVAO Vatsim Acars dev FSCB

fb Users Online No pilots online!
0 Pilot(s) and 167 Guest(s) Online
CMS by phpVMS - Design by Crazycreatives.com - Copyright © 2018 - Brussels Airlines Virtual